Metar Aviation Weather Data KTRI Tri-Cities

61°F Temp
61°F Dewpoint
100% Humidity
Temperature
3 MPH
5 KM/H
3 KTS
230°
South West

Wind Speed
Light Rain
Showers
Pressure 1021 (hPa) - 30.16 (in)
Visibility 3.0 (mi) - 4.8 (km)

Current Conditions
KTRI
Tri-Cities
Metar :KTRI 162318Z 23003KT 3SM -RA BR BKN010 OVC017 16/16 A3016 RMK AO2 CIG 007V012 P0001 T01560156
Tue 16th October 19:18 pm

Tri-Cities
  Metar Aviation API Data Provided by https://www.checkwx.com/ PHP scripts by weather34.com ©2018